sensor_id;sensor_type;location;lat;lon;timestamp;P1;durP1;ratioP1;P2;durP2;ratioP2
61291;SDS011;47165;42.664;23.368;2022-11-10T00:01:25;3.92;;;3.08;;
61291;SDS011;47165;42.664;23.368;2022-11-10T00:03:50;3.55;;;2.83;;
61291;SDS011;47165;42.664;23.368;2022-11-10T00:06:15;5.60;;;3.85;;
61291;SDS011;47165;42.664;23.368;2022-11-10T00:08:41;2.90;;;2.30;;
61291;SDS011;47165;42.664;23.368;2022-11-10T00:11:06;10.38;;;4.47;;
61291;SDS011;47165;42.664;23.368;2022-11-10T00:13:33;8.55;;;5.03;;
61291;SDS011;47165;42.664;23.368;2022-11-10T00:16:20;3.75;;;2.67;;
61291;SDS011;47165;42.664;23.368;2022-11-10T00:19:24;3.53;;;2.65;;
61291;SDS011;47165;42.664;23.368;2022-11-10T00:21:50;7.75;;;3.90;;
61291;SDS011;47165;42.664;23.368;2022-11-10T00:24:15;8.90;;;3.30;;
61291;SDS011;47165;42.664;23.368;2022-11-10T00:26:41;6.78;;;3.03;;
61291;SDS011;47165;42.664;23.368;2022-11-10T00:29:06;4.18;;;3.05;;
61291;SDS011;47165;42.664;23.368;2022-11-10T00:31:31;9.32;;;3.42;;
61291;SDS011;47165;42.664;23.368;2022-11-10T00:33:57;5.72;;;4.00;;
61291;SDS011;47165;42.664;23.368;2022-11-10T00:36:22;2.65;;;2.47;;
61291;SDS011;47165;42.664;23.368;2022-11-10T00:38:49;4.45;;;2.35;;
61291;SDS011;47165;42.664;23.368;2022-11-10T00:41:15;3.85;;;2.63;;
61291;SDS011;47165;42.664;23.368;2022-11-10T00:43:41;3.45;;;2.92;;
61291;SDS011;47165;42.664;23.368;2022-11-10T00:46:06;3.90;;;3.35;;
61291;SDS011;47165;42.664;23.368;2022-11-10T00:48:31;3.45;;;3.10;;
61291;SDS011;47165;42.664;23.368;2022-11-10T00:50:57;1.95;;;1.83;;
61291;SDS011;47165;42.664;23.368;2022-11-10T00:53:22;2.22;;;1.80;;
61291;SDS011;47165;42.664;23.368;2022-11-10T00:55:48;6.32;;;3.35;;
61291;SDS011;47165;42.664;23.368;2022-11-10T00:58:13;10.57;;;4.95;;
61291;SDS011;47165;42.664;23.368;2022-11-10T01:00:39;3.10;;;2.80;;
61291;SDS011;47165;42.664;23.368;2022-11-10T01:03:04;5.78;;;3.00;;
61291;SDS011;47165;42.664;23.368;2022-11-10T01:05:30;2.78;;;2.58;;
61291;SDS011;47165;42.664;23.368;2022-11-10T01:08:00;2.80;;;2.13;;
61291;SDS011;47165;42.664;23.368;2022-11-10T01:10:25;8.57;;;5.32;;
61291;SDS011;47165;42.664;23.368;2022-11-10T01:12:51;6.78;;;4.35;;
61291;SDS011;47165;42.664;23.368;2022-11-10T01:15:16;1.90;;;1.80;;
61291;SDS011;47165;42.664;23.368;2022-11-10T01:17:42;1.88;;;1.75;;
61291;SDS011;47165;42.664;23.368;2022-11-10T01:20:08;12.38;;;4.07;;
61291;SDS011;47165;42.664;23.368;2022-11-10T01:22:34;2.63;;;2.42;;
61291;SDS011;47165;42.664;23.368;2022-11-10T01:24:59;4.88;;;3.00;;
61291;SDS011;47165;42.664;23.368;2022-11-10T01:27:25;3.22;;;2.35;;
61291;SDS011;47165;42.664;23.368;2022-11-10T01:29:50;6.07;;;4.13;;
61291;SDS011;47165;42.664;23.368;2022-11-10T01:32:16;4.25;;;3.70;;
61291;SDS011;47165;42.664;23.368;2022-11-10T01:38:02;3.30;;;2.28;;
61291;SDS011;47165;42.664;23.368;2022-11-10T01:40:28;13.63;;;3.47;;
61291;SDS011;47165;42.664;23.368;2022-11-10T01:42:54;2.65;;;2.45;;
61291;SDS011;47165;42.664;23.368;2022-11-10T01:47:48;6.70;;;3.72;;
61291;SDS011;47165;42.664;23.368;2022-11-10T01:50:19;3.17;;;2.42;;
61291;SDS011;47165;42.664;23.368;2022-11-10T01:52:47;4.43;;;2.92;;
61291;SDS011;47165;42.664;23.368;2022-11-10T01:55:16;3.28;;;2.60;;
61291;SDS011;47165;42.664;23.368;2022-11-10T01:57:42;2.75;;;1.55;;
61291;SDS011;47165;42.664;23.368;2022-11-10T02:00:08;5.18;;;3.45;;
61291;SDS011;47165;42.664;23.368;2022-11-10T02:05:31;5.00;;;2.97;;
61291;SDS011;47165;42.664;23.368;2022-11-10T02:07:57;7.50;;;2.53;;
61291;SDS011;47165;42.664;23.368;2022-11-10T02:10:24;5.75;;;2.47;;
61291;SDS011;47165;42.664;23.368;2022-11-10T02:12:49;1.88;;;1.23;;
61291;SDS011;47165;42.664;23.368;2022-11-10T02:15:16;5.88;;;2.65;;
61291;SDS011;47165;42.664;23.368;2022-11-10T02:17:43;2.22;;;2.03;;
61291;SDS011;47165;42.664;23.368;2022-11-10T02:20:12;1.35;;;1.30;;
61291;SDS011;47165;42.664;23.368;2022-11-10T02:22:39;2.47;;;2.22;;
61291;SDS011;47165;42.664;23.368;2022-11-10T02:25:04;6.57;;;3.00;;
61291;SDS011;47165;42.664;23.368;2022-11-10T02:27:31;4.88;;;3.40;;
61291;SDS011;47165;42.664;23.368;2022-11-10T02:29:56;5.25;;;3.58;;
61291;SDS011;47165;42.664;23.368;2022-11-10T02:32:22;2.83;;;2.55;;
61291;SDS011;47165;42.664;23.368;2022-11-10T02:34:48;5.43;;;2.50;;
61291;SDS011;47165;42.664;23.368;2022-11-10T02:37:13;5.05;;;2.97;;
61291;SDS011;47165;42.664;23.368;2022-11-10T02:39:39;3.58;;;2.53;;
61291;SDS011;47165;42.664;23.368;2022-11-10T02:42:04;3.17;;;2.90;;
61291;SDS011;47165;42.664;23.368;2022-11-10T02:44:37;3.17;;;2.47;;
61291;SDS011;47165;42.664;23.368;2022-11-10T02:47:04;3.83;;;2.55;;
61291;SDS011;47165;42.664;23.368;2022-11-10T02:49:30;7.43;;;3.75;;
61291;SDS011;47165;42.664;23.368;2022-11-10T02:51:55;4.80;;;1.83;;
61291;SDS011;47165;42.664;23.368;2022-11-10T02:54:21;4.35;;;3.90;;
61291;SDS011;47165;42.664;23.368;2022-11-10T02:56:46;5.57;;;2.47;;
61291;SDS011;47165;42.664;23.368;2022-11-10T02:59:11;6.28;;;3.75;;
61291;SDS011;47165;42.664;23.368;2022-11-10T03:01:37;1.85;;;1.65;;
61291;SDS011;47165;42.664;23.368;2022-11-10T03:04:02;2.42;;;2.22;;
61291;SDS011;47165;42.664;23.368;2022-11-10T03:06:28;2.90;;;2.15;;
61291;SDS011;47165;42.664;23.368;2022-11-10T03:08:53;3.10;;;2.90;;
61291;SDS011;47165;42.664;23.368;2022-11-10T03:11:19;2.90;;;2.28;;
61291;SDS011;47165;42.664;23.368;2022-11-10T03:13:44;3.08;;;2.83;;
61291;SDS011;47165;42.664;23.368;2022-11-10T03:16:10;2.08;;;1.55;;
61291;SDS011;47165;42.664;23.368;2022-11-10T03:18:35;8.65;;;2.75;;
61291;SDS011;47165;42.664;23.368;2022-11-10T03:21:01;4.15;;;3.10;;
61291;SDS011;47165;42.664;23.368;2022-11-10T03:23:26;2.25;;;2.03;;
61291;SDS011;47165;42.664;23.368;2022-11-10T03:25:51;8.13;;;4.28;;
61291;SDS011;47165;42.664;23.368;2022-11-10T03:28:17;4.63;;;3.33;;
61291;SDS011;47165;42.664;23.368;2022-11-10T03:30:42;4.72;;;3.38;;
61291;SDS011;47165;42.664;23.368;2022-11-10T03:33:08;2.28;;;2.13;;
61291;SDS011;47165;42.664;23.368;2022-11-10T03:35:34;2.38;;;2.10;;
61291;SDS011;47165;42.664;23.368;2022-11-10T03:37:59;7.40;;;5.18;;
61291;SDS011;47165;42.664;23.368;2022-11-10T03:40:25;3.22;;;2.38;;
61291;SDS011;47165;42.664;23.368;2022-11-10T03:42:50;2.92;;;2.58;;
61291;SDS011;47165;42.664;23.368;2022-11-10T03:45:15;4.68;;;3.25;;
61291;SDS011;47165;42.664;23.368;2022-11-10T03:47:44;6.05;;;3.70;;
61291;SDS011;47165;42.664;23.368;2022-11-10T03:50:13;5.03;;;3.13;;
61291;SDS011;47165;42.664;23.368;2022-11-10T03:52:39;2.72;;;2.13;;
61291;SDS011;47165;42.664;23.368;2022-11-10T03:55:06;2.65;;;2.45;;
61291;SDS011;47165;42.664;23.368;2022-11-10T03:57:31;3.42;;;2.30;;
61291;SDS011;47165;42.664;23.368;2022-11-10T03:59:57;2.63;;;1.95;;
61291;SDS011;47165;42.664;23.368;2022-11-10T04:02:22;6.60;;;3.03;;
61291;SDS011;47165;42.664;23.368;2022-11-10T04:04:48;4.70;;;2.08;;
61291;SDS011;47165;42.664;23.368;2022-11-10T04:07:32;6.65;;;3.33;;
61291;SDS011;47165;42.664;23.368;2022-11-10T04:10:16;4.07;;;3.10;;
61291;SDS011;47165;42.664;23.368;2022-11-10T04:12:41;3.65;;;2.47;;
61291;SDS011;47165;42.664;23.368;2022-11-10T04:15:25;2.63;;;2.42;;
61291;SDS011;47165;42.664;23.368;2022-11-10T04:18:06;2.03;;;1.83;;
61291;SDS011;47165;42.664;23.368;2022-11-10T04:23:34;0.30;;;0.30;;
61291;SDS011;47165;42.664;23.368;2022-11-10T04:26:01;2.10;;;1.77;;
61291;SDS011;47165;42.664;23.368;2022-11-10T04:28:46;3.70;;;2.50;;
61291;SDS011;47165;42.664;23.368;2022-11-10T04:31:13;2.83;;;1.88;;
61291;SDS011;47165;42.664;23.368;2022-11-10T04:33:42;4.20;;;2.03;;
61291;SDS011;47165;42.664;23.368;2022-11-10T04:36:08;1.85;;;1.75;;
61291;SDS011;47165;42.664;23.368;2022-11-10T04:38:36;4.65;;;2.63;;
61291;SDS011;47165;42.664;23.368;2022-11-10T04:41:02;4.63;;;4.22;;
61291;SDS011;47165;42.664;23.368;2022-11-10T04:43:28;4.57;;;3.67;;
61291;SDS011;47165;42.664;23.368;2022-11-10T04:45:53;3.97;;;2.90;;
61291;SDS011;47165;42.664;23.368;2022-11-10T04:48:19;6.85;;;2.60;;
61291;SDS011;47165;42.664;23.368;2022-11-10T04:50:45;3.47;;;2.00;;
61291;SDS011;47165;42.664;23.368;2022-11-10T04:53:11;4.57;;;3.13;;
61291;SDS011;47165;42.664;23.368;2022-11-10T04:55:40;6.03;;;3.15;;
61291;SDS011;47165;42.664;23.368;2022-11-10T04:58:07;3.90;;;3.03;;
61291;SDS011;47165;42.664;23.368;2022-11-10T05:00:33;4.53;;;2.33;;
61291;SDS011;47165;42.664;23.368;2022-11-10T05:03:00;2.45;;;1.40;;
61291;SDS011;47165;42.664;23.368;2022-11-10T05:05:26;3.75;;;2.83;;
61291;SDS011;47165;42.664;23.368;2022-11-10T05:07:52;3.55;;;2.30;;
61291;SDS011;47165;42.664;23.368;2022-11-10T05:10:18;4.70;;;2.15;;
61291;SDS011;47165;42.664;23.368;2022-11-10T05:12:43;2.08;;;1.73;;
61291;SDS011;47165;42.664;23.368;2022-11-10T05:15:09;3.35;;;2.70;;
61291;SDS011;47165;42.664;23.368;2022-11-10T05:17:35;3.95;;;3.53;;
61291;SDS011;47165;42.664;23.368;2022-11-10T05:20:00;6.60;;;3.75;;
61291;SDS011;47165;42.664;23.368;2022-11-10T05:22:26;1.80;;;1.70;;
61291;SDS011;47165;42.664;23.368;2022-11-10T05:24:52;6.13;;;3.17;;
61291;SDS011;47165;42.664;23.368;2022-11-10T05:27:17;3.45;;;3.15;;
61291;SDS011;47165;42.664;23.368;2022-11-10T05:29:43;4.97;;;2.38;;
61291;SDS011;47165;42.664;23.368;2022-11-10T05:32:08;4.43;;;3.13;;
61291;SDS011;47165;42.664;23.368;2022-11-10T05:37:55;1.20;;;0.95;;
61291;SDS011;47165;42.664;23.368;2022-11-10T05:40:20;7.10;;;2.83;;
61291;SDS011;47165;42.664;23.368;2022-11-10T05:42:46;2.10;;;1.63;;
61291;SDS011;47165;42.664;23.368;2022-11-10T05:45:17;3.22;;;1.75;;
61291;SDS011;47165;42.664;23.368;2022-11-10T05:47:43;4.38;;;3.05;;
61291;SDS011;47165;42.664;23.368;2022-11-10T05:50:08;4.78;;;3.88;;
61291;SDS011;47165;42.664;23.368;2022-11-10T05:52:34;1.80;;;1.13;;
61291;SDS011;47165;42.664;23.368;2022-11-10T05:55:03;3.38;;;1.98;;
61291;SDS011;47165;42.664;23.368;2022-11-10T05:57:29;2.22;;;1.00;;
61291;SDS011;47165;42.664;23.368;2022-11-10T05:59:54;3.17;;;2.70;;
61291;SDS011;47165;42.664;23.368;2022-11-10T06:02:20;4.63;;;1.45;;
61291;SDS011;47165;42.664;23.368;2022-11-10T06:04:45;4.47;;;1.55;;
61291;SDS011;47165;42.664;23.368;2022-11-10T06:07:11;1.40;;;0.95;;
61291;SDS011;47165;42.664;23.368;2022-11-10T06:09:36;3.05;;;1.83;;
61291;SDS011;47165;42.664;23.368;2022-11-10T06:12:02;2.92;;;1.88;;
61291;SDS011;47165;42.664;23.368;2022-11-10T06:14:28;2.92;;;1.98;;
61291;SDS011;47165;42.664;23.368;2022-11-10T06:16:53;5.28;;;3.40;;
61291;SDS011;47165;42.664;23.368;2022-11-10T06:19:20;4.65;;;2.47;;
61291;SDS011;47165;42.664;23.368;2022-11-10T06:21:45;1.20;;;1.10;;
61291;SDS011;47165;42.664;23.368;2022-11-10T06:24:11;6.68;;;3.35;;
61291;SDS011;47165;42.664;23.368;2022-11-10T06:26:36;1.42;;;1.23;;
61291;SDS011;47165;42.664;23.368;2022-11-10T06:29:01;5.22;;;2.83;;
61291;SDS011;47165;42.664;23.368;2022-11-10T06:31:27;3.63;;;2.15;;
61291;SDS011;47165;42.664;23.368;2022-11-10T06:33:53;3.78;;;3.38;;
61291;SDS011;47165;42.664;23.368;2022-11-10T06:36:19;5.65;;;2.03;;
61291;SDS011;47165;42.664;23.368;2022-11-10T06:38:45;4.85;;;2.38;;
61291;SDS011;47165;42.664;23.368;2022-11-10T06:41:10;4.50;;;4.20;;
61291;SDS011;47165;42.664;23.368;2022-11-10T06:43:36;3.15;;;2.47;;
61291;SDS011;47165;42.664;23.368;2022-11-10T06:46:01;4.72;;;2.85;;
61291;SDS011;47165;42.664;23.368;2022-11-10T06:48:26;4.25;;;3.67;;
61291;SDS011;47165;42.664;23.368;2022-11-10T06:50:52;11.90;;;5.90;;
61291;SDS011;47165;42.664;23.368;2022-11-10T06:53:17;9.57;;;3.85;;
61291;SDS011;47165;42.664;23.368;2022-11-10T06:55:43;3.70;;;2.50;;
61291;SDS011;47165;42.664;23.368;2022-11-10T06:58:09;5.90;;;3.28;;
61291;SDS011;47165;42.664;23.368;2022-11-10T07:00:35;6.13;;;2.92;;
61291;SDS011;47165;42.664;23.368;2022-11-10T07:03:01;7.57;;;3.58;;
61291;SDS011;47165;42.664;23.368;2022-11-10T07:05:29;6.35;;;2.70;;
61291;SDS011;47165;42.664;23.368;2022-11-10T07:08:00;14.27;;;6.50;;
61291;SDS011;47165;42.664;23.368;2022-11-10T07:10:26;6.75;;;4.28;;
61291;SDS011;47165;42.664;23.368;2022-11-10T07:12:55;7.43;;;4.72;;
61291;SDS011;47165;42.664;23.368;2022-11-10T07:15:24;6.57;;;5.43;;
61291;SDS011;47165;42.664;23.368;2022-11-10T07:17:50;4.90;;;4.20;;
61291;SDS011;47165;42.664;23.368;2022-11-10T07:20:16;7.50;;;4.25;;
61291;SDS011;47165;42.664;23.368;2022-11-10T07:22:42;8.73;;;6.65;;
61291;SDS011;47165;42.664;23.368;2022-11-10T07:25:07;11.00;;;5.43;;
61291;SDS011;47165;42.664;23.368;2022-11-10T07:27:33;6.10;;;3.47;;
61291;SDS011;47165;42.664;23.368;2022-11-10T07:29:58;7.70;;;4.97;;
61291;SDS011;47165;42.664;23.368;2022-11-10T07:32:24;6.43;;;5.80;;
61291;SDS011;47165;42.664;23.368;2022-11-10T07:38:11;3.85;;;3.55;;
61291;SDS011;47165;42.664;23.368;2022-11-10T07:40:38;6.35;;;5.20;;
61291;SDS011;47165;42.664;23.368;2022-11-10T07:43:04;11.07;;;6.18;;
61291;SDS011;47165;42.664;23.368;2022-11-10T07:45:30;6.70;;;6.10;;
61291;SDS011;47165;42.664;23.368;2022-11-10T07:47:57;6.80;;;4.28;;
61291;SDS011;47165;42.664;23.368;2022-11-10T07:50:26;6.43;;;4.63;;
61291;SDS011;47165;42.664;23.368;2022-11-10T07:52:54;10.15;;;5.85;;
61291;SDS011;47165;42.664;23.368;2022-11-10T07:55:32;6.53;;;4.85;;
61291;SDS011;47165;42.664;23.368;2022-11-10T07:57:58;5.72;;;4.38;;
61291;SDS011;47165;42.664;23.368;2022-11-10T08:00:24;6.13;;;4.20;;
61291;SDS011;47165;42.664;23.368;2022-11-10T08:02:49;12.75;;;6.50;;
61291;SDS011;47165;42.664;23.368;2022-11-10T08:05:16;8.63;;;5.22;;
61291;SDS011;47165;42.664;23.368;2022-11-10T08:07:42;10.75;;;5.57;;
61291;SDS011;47165;42.664;23.368;2022-11-10T08:10:08;12.55;;;7.25;;
61291;SDS011;47165;42.664;23.368;2022-11-10T08:12:33;11.85;;;6.53;;
61291;SDS011;47165;42.664;23.368;2022-11-10T08:14:59;14.45;;;7.93;;
61291;SDS011;47165;42.664;23.368;2022-11-10T08:17:25;13.68;;;6.50;;
61291;SDS011;47165;42.664;23.368;2022-11-10T08:19:50;7.05;;;5.97;;
61291;SDS011;47165;42.664;23.368;2022-11-10T08:22:16;13.30;;;7.45;;
61291;SDS011;47165;42.664;23.368;2022-11-10T08:24:41;10.95;;;6.80;;
61291;SDS011;47165;42.664;23.368;2022-11-10T08:27:07;12.00;;;6.97;;
61291;SDS011;47165;42.664;23.368;2022-11-10T08:29:32;13.93;;;7.53;;
61291;SDS011;47165;42.664;23.368;2022-11-10T08:31:58;7.82;;;4.75;;
61291;SDS011;47165;42.664;23.368;2022-11-10T08:34:23;20.83;;;8.80;;
61291;SDS011;47165;42.664;23.368;2022-11-10T08:36:50;11.15;;;8.27;;
61291;SDS011;47165;42.664;23.368;2022-11-10T08:39:16;13.40;;;8.55;;
61291;SDS011;47165;42.664;23.368;2022-11-10T08:41:42;11.50;;;7.65;;
61291;SDS011;47165;42.664;23.368;2022-11-10T08:44:07;18.13;;;6.88;;
61291;SDS011;47165;42.664;23.368;2022-11-10T08:46:33;12.75;;;7.47;;
61291;SDS011;47165;42.664;23.368;2022-11-10T08:48:58;15.40;;;8.95;;
61291;SDS011;47165;42.664;23.368;2022-11-10T08:51:24;10.18;;;8.15;;
61291;SDS011;47165;42.664;23.368;2022-11-10T08:53:49;14.02;;;9.23;;
61291;SDS011;47165;42.664;23.368;2022-11-10T08:56:15;10.65;;;8.55;;
61291;SDS011;47165;42.664;23.368;2022-11-10T08:58:40;16.70;;;10.43;;
61291;SDS011;47165;42.664;23.368;2022-11-10T09:01:09;12.02;;;7.47;;
61291;SDS011;47165;42.664;23.368;2022-11-10T09:03:36;16.55;;;9.02;;
61291;SDS011;47165;42.664;23.368;2022-11-10T09:06:01;13.95;;;9.30;;
61291;SDS011;47165;42.664;23.368;2022-11-10T09:08:27;18.17;;;7.28;;
61291;SDS011;47165;42.664;23.368;2022-11-10T09:10:54;19.67;;;9.52;;
61291;SDS011;47165;42.664;23.368;2022-11-10T09:13:20;15.23;;;8.88;;
61291;SDS011;47165;42.664;23.368;2022-11-10T09:15:45;13.20;;;7.65;;
61291;SDS011;47165;42.664;23.368;2022-11-10T09:18:12;14.38;;;8.43;;
61291;SDS011;47165;42.664;23.368;2022-11-10T09:20:39;17.90;;;10.10;;
61291;SDS011;47165;42.664;23.368;2022-11-10T09:23:09;17.02;;;8.07;;
61291;SDS011;47165;42.664;23.368;2022-11-10T09:25:40;11.85;;;6.90;;
61291;SDS011;47165;42.664;23.368;2022-11-10T09:28:10;17.55;;;9.98;;
61291;SDS011;47165;42.664;23.368;2022-11-10T09:30:37;24.40;;;11.05;;
61291;SDS011;47165;42.664;23.368;2022-11-10T09:33:03;17.20;;;10.93;;
61291;SDS011;47165;42.664;23.368;2022-11-10T09:38:50;14.35;;;8.32;;
61291;SDS011;47165;42.664;23.368;2022-11-10T09:41:15;15.02;;;8.98;;
61291;SDS011;47165;42.664;23.368;2022-11-10T09:46:30;26.20;;;12.52;;
61291;SDS011;47165;42.664;23.368;2022-11-10T09:51:41;24.90;;;11.75;;
61291;SDS011;47165;42.664;23.368;2022-11-10T09:57:03;9.82;;;7.88;;
61291;SDS011;47165;42.664;23.368;2022-11-10T09:59:31;15.70;;;10.88;;
61291;SDS011;47165;42.664;23.368;2022-11-10T10:01:59;12.20;;;6.90;;
61291;SDS011;47165;42.664;23.368;2022-11-10T10:07:17;21.23;;;11.52;;
61291;SDS011;47165;42.664;23.368;2022-11-10T10:10:14;16.98;;;11.18;;
61291;SDS011;47165;42.664;23.368;2022-11-10T10:15:41;15.18;;;8.25;;
61291;SDS011;47165;42.664;23.368;2022-11-10T10:18:19;13.52;;;7.55;;
61291;SDS011;47165;42.664;23.368;2022-11-10T10:23:51;13.38;;;7.05;;
61291;SDS011;47165;42.664;23.368;2022-11-10T10:26:20;13.30;;;7.03;;
61291;SDS011;47165;42.664;23.368;2022-11-10T10:28:49;16.98;;;9.25;;
61291;SDS011;47165;42.664;23.368;2022-11-10T10:31:22;10.95;;;8.65;;
61291;SDS011;47165;42.664;23.368;2022-11-10T10:33:54;12.75;;;8.80;;
61291;SDS011;47165;42.664;23.368;2022-11-10T10:39:37;20.77;;;8.05;;
61291;SDS011;47165;42.664;23.368;2022-11-10T10:41:48;9.23;;;6.53;;
61291;SDS011;47165;42.664;23.368;2022-11-10T10:44:15;13.05;;;8.63;;
61291;SDS011;47165;42.664;23.368;2022-11-10T10:46:43;15.25;;;7.95;;
61291;SDS011;47165;42.664;23.368;2022-11-10T10:51:38;16.92;;;9.93;;
61291;SDS011;47165;42.664;23.368;2022-11-10T10:54:04;26.35;;;14.82;;
61291;SDS011;47165;42.664;23.368;2022-11-10T10:56:32;22.38;;;10.43;;
61291;SDS011;47165;42.664;23.368;2022-11-10T10:59:02;14.65;;;9.52;;
61291;SDS011;47165;42.664;23.368;2022-11-10T11:01:31;15.35;;;8.27;;
61291;SDS011;47165;42.664;23.368;2022-11-10T11:03:58;22.92;;;10.60;;
61291;SDS011;47165;42.664;23.368;2022-11-10T11:06:28;17.08;;;9.07;;
61291;SDS011;47165;42.664;23.368;2022-11-10T11:11:33;19.38;;;10.27;;
61291;SDS011;47165;42.664;23.368;2022-11-10T11:14:20;17.13;;;9.55;;
61291;SDS011;47165;42.664;23.368;2022-11-10T11:16:49;16.25;;;9.18;;
61291;SDS011;47165;42.664;23.368;2022-11-10T11:19:15;18.48;;;9.95;;
61291;SDS011;47165;42.664;23.368;2022-11-10T11:24:33;17.43;;;8.30;;
61291;SDS011;47165;42.664;23.368;2022-11-10T11:30:14;15.82;;;9.55;;
61291;SDS011;47165;42.664;23.368;2022-11-10T11:35:46;21.33;;;10.60;;
61291;SDS011;47165;42.664;23.368;2022-11-10T11:38:23;22.90;;;10.20;;
61291;SDS011;47165;42.664;23.368;2022-11-10T11:43:52;21.90;;;10.65;;
61291;SDS011;47165;42.664;23.368;2022-11-10T11:57:47;13.60;;;8.00;;
61291;SDS011;47165;42.664;23.368;2022-11-10T12:00:23;17.48;;;8.18;;
61291;SDS011;47165;42.664;23.368;2022-11-10T12:08:27;15.75;;;8.02;;
61291;SDS011;47165;42.664;23.368;2022-11-10T12:16:35;20.52;;;9.00;;
61291;SDS011;47165;42.664;23.368;2022-11-10T12:19:16;18.00;;;10.15;;
61291;SDS011;47165;42.664;23.368;2022-11-10T12:29:55;23.73;;;10.02;;
61291;SDS011;47165;42.664;23.368;2022-11-10T12:35:04;16.40;;;8.73;;
61291;SDS011;47165;42.664;23.368;2022-11-10T12:40:45;14.50;;;7.53;;
61291;SDS011;47165;42.664;23.368;2022-11-10T12:43:19;13.77;;;7.87;;
61291;SDS011;47165;42.664;23.368;2022-11-10T12:45:55;16.13;;;9.10;;
61291;SDS011;47165;42.664;23.368;2022-11-10T12:48:24;17.48;;;8.48;;
61291;SDS011;47165;42.664;23.368;2022-11-10T12:51:00;14.15;;;8.70;;
61291;SDS011;47165;42.664;23.368;2022-11-10T12:53:34;16.08;;;8.80;;
61291;SDS011;47165;42.664;23.368;2022-11-10T12:56:05;19.60;;;9.90;;
61291;SDS011;47165;42.664;23.368;2022-11-10T12:58:36;16.15;;;7.55;;
61291;SDS011;47165;42.664;23.368;2022-11-10T13:01:20;22.33;;;8.95;;
61291;SDS011;47165;42.664;23.368;2022-11-10T13:03:58;11.32;;;8.02;;
61291;SDS011;47165;42.664;23.368;2022-11-10T13:06:29;14.82;;;9.02;;
61291;SDS011;47165;42.664;23.368;2022-11-10T13:08:57;16.83;;;8.73;;
61291;SDS011;47165;42.664;23.368;2022-11-10T13:14:02;16.70;;;8.90;;
61291;SDS011;47165;42.664;23.368;2022-11-10T13:26:51;11.48;;;6.53;;
61291;SDS011;47165;42.664;23.368;2022-11-10T13:38:01;14.30;;;7.78;;
61291;SDS011;47165;42.664;23.368;2022-11-10T13:40:27;12.98;;;8.68;;
61291;SDS011;47165;42.664;23.368;2022-11-10T13:45:40;19.85;;;9.18;;
61291;SDS011;47165;42.664;23.368;2022-11-10T13:54:04;13.73;;;7.47;;
61291;SDS011;47165;42.664;23.368;2022-11-10T13:59:18;15.18;;;8.63;;
61291;SDS011;47165;42.664;23.368;2022-11-10T14:01:46;16.88;;;8.52;;
61291;SDS011;47165;42.664;23.368;2022-11-10T14:07:02;17.38;;;9.02;;
61291;SDS011;47165;42.664;23.368;2022-11-10T14:09:37;14.45;;;7.82;;
61291;SDS011;47165;42.664;23.368;2022-11-10T14:12:13;15.85;;;9.23;;
61291;SDS011;47165;42.664;23.368;2022-11-10T14:15:19;14.55;;;8.10;;
61291;SDS011;47165;42.664;23.368;2022-11-10T14:17:51;11.63;;;7.32;;
61291;SDS011;47165;42.664;23.368;2022-11-10T14:20:20;19.08;;;7.15;;
61291;SDS011;47165;42.664;23.368;2022-11-10T14:22:50;19.30;;;7.80;;
61291;SDS011;47165;42.664;23.368;2022-11-10T14:25:29;21.60;;;9.50;;
61291;SDS011;47165;42.664;23.368;2022-11-10T14:28:00;15.43;;;9.00;;
61291;SDS011;47165;42.664;23.368;2022-11-10T14:30:41;13.18;;;7.28;;
61291;SDS011;47165;42.664;23.368;2022-11-10T14:33:15;18.20;;;8.07;;
61291;SDS011;47165;42.664;23.368;2022-11-10T14:35:45;15.15;;;7.68;;
61291;SDS011;47165;42.664;23.368;2022-11-10T14:38:23;15.32;;;7.28;;
61291;SDS011;47165;42.664;23.368;2022-11-10T14:40:54;15.90;;;8.55;;
61291;SDS011;47165;42.664;23.368;2022-11-10T14:43:26;17.45;;;8.02;;
61291;SDS011;47165;42.664;23.368;2022-11-10T14:45:56;11.80;;;7.20;;
61291;SDS011;47165;42.664;23.368;2022-11-10T14:48:23;15.45;;;8.23;;
61291;SDS011;47165;42.664;23.368;2022-11-10T14:50:50;17.00;;;7.50;;
61291;SDS011;47165;42.664;23.368;2022-11-10T14:55:45;18.77;;;9.15;;
61291;SDS011;47165;42.664;23.368;2022-11-10T14:58:13;12.65;;;8.05;;
61291;SDS011;47165;42.664;23.368;2022-11-10T15:00:44;12.98;;;7.50;;
61291;SDS011;47165;42.664;23.368;2022-11-10T15:03:13;18.00;;;6.70;;
61291;SDS011;47165;42.664;23.368;2022-11-10T15:05:44;8.70;;;5.80;;
61291;SDS011;47165;42.664;23.368;2022-11-10T15:08:10;11.48;;;7.47;;
61291;SDS011;47165;42.664;23.368;2022-11-10T15:13:16;11.23;;;6.93;;
61291;SDS011;47165;42.664;23.368;2022-11-10T15:15:46;11.43;;;6.35;;
61291;SDS011;47165;42.664;23.368;2022-11-10T15:18:24;18.27;;;7.70;;
61291;SDS011;47165;42.664;23.368;2022-11-10T15:21:09;12.52;;;6.30;;
61291;SDS011;47165;42.664;23.368;2022-11-10T15:23:37;14.18;;;7.13;;
61291;SDS011;47165;42.664;23.368;2022-11-10T15:26:04;13.38;;;7.25;;
61291;SDS011;47165;42.664;23.368;2022-11-10T15:28:34;9.93;;;6.40;;
61291;SDS011;47165;42.664;23.368;2022-11-10T15:31:04;14.35;;;5.90;;
61291;SDS011;47165;42.664;23.368;2022-11-10T15:33:32;8.18;;;5.20;;
61291;SDS011;47165;42.664;23.368;2022-11-10T15:39:22;7.70;;;4.53;;
61291;SDS011;47165;42.664;23.368;2022-11-10T15:41:55;7.32;;;4.70;;
61291;SDS011;47165;42.664;23.368;2022-11-10T15:44:23;8.65;;;5.32;;
61291;SDS011;47165;42.664;23.368;2022-11-10T15:46:51;8.57;;;4.75;;
61291;SDS011;47165;42.664;23.368;2022-11-10T15:49:21;10.40;;;5.97;;
61291;SDS011;47165;42.664;23.368;2022-11-10T15:51:49;7.20;;;3.97;;
61291;SDS011;47165;42.664;23.368;2022-11-10T15:54:17;7.47;;;5.28;;
61291;SDS011;47165;42.664;23.368;2022-11-10T15:56:46;6.97;;;5.38;;
61291;SDS011;47165;42.664;23.368;2022-11-10T15:59:11;7.90;;;4.80;;
61291;SDS011;47165;42.664;23.368;2022-11-10T16:01:37;9.60;;;4.93;;
61291;SDS011;47165;42.664;23.368;2022-11-10T16:04:03;8.95;;;5.45;;
61291;SDS011;47165;42.664;23.368;2022-11-10T16:06:29;11.50;;;5.15;;
61291;SDS011;47165;42.664;23.368;2022-11-10T16:08:54;10.25;;;5.95;;
61291;SDS011;47165;42.664;23.368;2022-11-10T16:11:20;17.30;;;6.32;;
61291;SDS011;47165;42.664;23.368;2022-11-10T16:13:47;8.38;;;3.97;;
61291;SDS011;47165;42.664;23.368;2022-11-10T16:16:15;10.63;;;4.95;;
61291;SDS011;47165;42.664;23.368;2022-11-10T16:18:44;11.15;;;5.93;;
61291;SDS011;47165;42.664;23.368;2022-11-10T16:21:14;8.25;;;4.93;;
61291;SDS011;47165;42.664;23.368;2022-11-10T16:23:41;13.07;;;7.63;;
61291;SDS011;47165;42.664;23.368;2022-11-10T16:26:09;7.57;;;5.30;;
61291;SDS011;47165;42.664;23.368;2022-11-10T16:28:37;12.00;;;5.68;;
61291;SDS011;47165;42.664;23.368;2022-11-10T16:31:04;12.68;;;6.30;;
61291;SDS011;47165;42.664;23.368;2022-11-10T16:33:32;8.85;;;5.15;;
61291;SDS011;47165;42.664;23.368;2022-11-10T16:35:57;9.68;;;4.95;;
61291;SDS011;47165;42.664;23.368;2022-11-10T16:38:27;10.55;;;6.38;;
61291;SDS011;47165;42.664;23.368;2022-11-10T16:40:54;8.43;;;4.57;;
61291;SDS011;47165;42.664;23.368;2022-11-10T16:43:22;6.57;;;4.50;;
61291;SDS011;47165;42.664;23.368;2022-11-10T16:45:48;5.70;;;3.88;;
61291;SDS011;47165;42.664;23.368;2022-11-10T16:48:17;6.65;;;4.65;;
61291;SDS011;47165;42.664;23.368;2022-11-10T16:50:45;4.32;;;3.47;;
61291;SDS011;47165;42.664;23.368;2022-11-10T16:53:15;12.40;;;5.40;;